Time;durP1;ratioP1;P1;durP2;ratioP2;P2;SDS_P1;SDS_P2;PMS_P1;PMS_P2;Temp;Humidity;BMP_temperature;BMP_pressure;BME280_temperature;BME280_humidity;BME280_pressure;Samples;Min_cycle;Max_cycle;Signal;HPM_P1;HPM_P2
2022/05/10 00:00:06;;;;;;;;;31.00;29.25;;;;;19.49;47.56;101194.38;4952628;28;45363;-62
2022/05/10 00:02:33;;;;;;;;;28.75;27.00;;;;;19.48;47.68;101194.50;4939744;28;45489;-63
2022/05/10 00:04:58;;;;;;;;;27.50;27.00;;;;;19.47;48.03;101190.13;4956342;28;45344;-61
2022/05/10 00:07:27;;;;;;;;;27.25;27.25;;;;;19.42;47.81;101187.75;4956138;28;46035;-62
2022/05/10 00:09:52;;;;;;;;;32.75;28.25;;;;;19.42;48.12;101187.75;4956290;28;45245;-61
2022/05/10 00:12:18;;;;;;;;;34.00;30.50;;;;;19.41;48.38;101186.03;4956367;28;45291;-62
2022/05/10 00:14:43;;;;;;;;;31.25;27.00;;;;;19.38;48.71;101181.78;4958651;28;45465;-59
2022/05/10 00:17:22;;;;;;;;;32.50;30.00;;;;;19.35;48.42;101176.66;4955952;28;45363;-59
2022/05/10 00:19:47;;;;;;;;;29.75;26.50;;;;;19.32;48.93;101182.22;4955926;28;45433;-59
2022/05/10 00:22:13;;;;;;;;;33.50;31.00;;;;;19.30;49.31;101172.59;4938707;28;45651;-60
2022/05/10 00:24:38;;;;;;;;;31.75;30.00;;;;;19.26;49.57;101171.97;4956448;28;45469;-60
2022/05/10 00:27:04;;;;;;;;;33.50;30.25;;;;;19.26;49.08;101182.63;4955915;28;45262;-61
2022/05/10 00:29:29;;;;;;;;;32.25;29.50;;;;;19.22;49.51;101178.47;4955670;28;45326;-60
2022/05/10 00:31:54;;;;;;;;;33.25;27.50;;;;;19.17;49.60;101173.41;4956070;28;45411;-59
2022/05/10 00:34:20;;;;;;;;;33.50;31.50;;;;;19.17;49.98;101177.91;4956093;28;45266;-59
2022/05/10 00:36:46;;;;;;;;;32.75;29.75;;;;;19.08;49.61;101164.22;4955659;28;45302;-60
2022/05/10 00:39:12;;;;;;;;;30.25;29.00;;;;;19.12;50.37;101170.22;4955953;28;45418;-59
2022/05/10 00:41:54;;;;;;;;;35.75;30.25;;;;;19.08;50.27;101171.38;4956811;28;45361;-58
2022/05/10 00:44:40;;;;;;;;;31.25;30.50;;;;;19.03;50.53;101161.00;4955717;28;45432;-58
2022/05/10 00:47:19;;;;;;;;;32.50;30.00;;;;;18.96;50.51;101149.88;4957641;28;45271;-59
2022/05/10 00:50:03;;;;;;;;;31.75;30.25;;;;;18.96;50.41;101159.66;4955461;28;45261;-60
2022/05/10 00:52:48;;;;;;;;;36.00;32.75;;;;;18.91;50.78;101161.78;4955491;28;45310;-60
2022/05/10 00:55:27;;;;;;;;;31.75;29.75;;;;;18.90;50.77;101157.41;4955804;28;45378;-59
2022/05/10 00:58:07;;;;;;;;;37.25;31.75;;;;;18.86;51.20;101153.25;4955440;28;45311;-60
2022/05/10 01:00:33;;;;;;;;;30.25;29.75;;;;;18.80;51.09;101139.38;4956150;28;45455;-61
2022/05/10 01:03:09;;;;;;;;;34.75;30.75;;;;;18.77;51.05;101142.25;4955887;28;45233;-62
2022/05/10 01:05:54;;;;;;;;;35.00;30.25;;;;;18.72;51.40;101141.69;4938329;28;45496;-62
2022/05/10 01:08:31;;;;;;;;;35.00;32.00;;;;;18.68;51.69;101135.72;4956434;28;46217;-61
2022/05/10 01:11:04;;;;;;;;;37.25;30.75;;;;;18.59;51.92;101131.00;4940124;28;45306;-61
2022/05/10 01:13:42;;;;;;;;;36.25;32.00;;;;;18.60;51.85;101143.38;4956140;28;45355;-63
2022/05/10 01:16:14;;;;;;;;;30.00;29.75;;;;;18.59;52.06;101141.66;4956487;28;45385;-60
2022/05/10 01:18:41;;;;;;;;;36.00;30.75;;;;;18.56;52.21;101140.97;4950626;28;46367;-62
2022/05/10 01:21:41;;;;;;;;;34.00;30.00;;;;;18.53;52.28;101136.69;4936722;28;45383;-61
2022/05/10 01:24:28;;;;;;;;;33.00;30.00;;;;;18.51;52.26;101128.81;4928865;28;45328;-61
2022/05/10 01:27:27;;;;;;;;;28.25;26.25;;;;;18.48;52.39;101122.81;4948990;28;45580;-59
2022/05/10 01:30:01;;;;;;;;;29.50;29.50;;;;;18.41;52.68;101119.72;4954176;28;45551;-61
2022/05/10 01:35:29;;;;;;;;;23.50;23.50;;;;;18.35;52.48;101120.97;4958761;28;45430;-63
2022/05/10 01:38:02;;;;;;;;;26.00;26.00;;;;;18.35;52.86;101125.44;4958048;28;45442;-62
2022/05/10 01:40:42;;;;;;;;;30.75;28.75;;;;;18.33;52.83;101120.19;4957926;28;46216;-62
2022/05/10 01:43:14;;;;;;;;;30.00;28.50;;;;;18.31;52.90;101121.28;4959129;28;45411;-62
2022/05/10 01:45:46;;;;;;;;;28.75;28.75;;;;;18.21;53.10;101108.56;4958529;28;45248;-61
2022/05/10 01:48:17;;;;;;;;;30.25;27.25;;;;;18.24;53.07;101110.16;4941054;28;45514;-63
2022/05/10 01:51:06;;;;;;;;;30.25;27.75;;;;;18.22;53.10;101112.94;4958235;28;45398;-60
2022/05/10 01:53:35;;;;;;;;;32.50;29.25;;;;;18.19;53.31;101107.78;4957631;28;45406;-60
2022/05/10 01:56:11;;;;;;;;;30.50;29.25;;;;;18.10;53.27;101101.25;4960447;28;45372;-61
2022/05/10 01:58:39;;;;;;;;;27.50;27.50;;;;;18.16;53.46;101102.66;4959014;28;45422;-59
2022/05/10 02:01:07;;;;;;;;;28.00;27.25;;;;;18.11;53.47;101102.09;4940586;28;47277;-60
2022/05/10 02:03:48;;;;;;;;;28.00;26.25;;;;;18.11;53.86;101102.09;4958499;28;45839;-59
2022/05/10 02:06:29;;;;;;;;;25.75;24.75;;;;;18.13;53.63;101100.19;4958140;28;45453;-61
2022/05/10 02:09:04;;;;;;;;;29.50;28.50;;;;;18.07;53.87;101100.59;4940892;28;45589;-60
2022/05/10 02:11:33;;;;;;;;;30.75;29.50;;;;;18.09;53.84;101101.34;4958012;28;46140;-59
2022/05/10 02:14:06;;;;;;;;;29.75;29.75;;;;;18.07;54.11;101093.44;4958480;28;45418;-60
2022/05/10 02:16:55;;;;;;;;;28.75;28.75;;;;;18.06;53.97;101096.22;4959328;28;45528;-62
2022/05/10 02:19:26;;;;;;;;;27.25;25.50;;;;;18.06;54.03;101093.56;4958173;28;45285;-62
2022/05/10 02:21:58;;;;;;;;;31.00;28.50;;;;;18.03;54.19;101091.09;4957520;28;45388;-62
2022/05/10 02:24:38;;;;;;;;;27.00;26.25;;;;;17.95;54.43;101076.41;4957932;28;45425;-60
2022/05/10 02:27:35;;;;;;;;;34.25;29.50;;;;;18.03;54.03;101086.59;4957848;28;45361;-61
2022/05/10 02:30:11;;;;;;;;;32.50;29.00;;;;;18.00;53.99;101083.25;4946492;28;45494;-62
2022/05/10 02:35:24;;;;;;;;;26.75;25.25;;;;;18.03;54.08;101088.44;4958434;28;45242;-61
2022/05/10 02:37:50;;;;;;;;;40.50;32.00;;;;;18.03;54.44;101089.28;4957531;28;45449;-62
2022/05/10 02:40:15;;;;;;;;;31.00;29.25;;;;;18.05;54.54;101089.19;4957754;28;45185;-62
2022/05/10 02:42:47;;;;;;;;;30.00;27.75;;;;;18.01;54.24;101074.34;4924167;28;47249;-60
2022/05/10 02:45:18;;;;;;;;;29.00;28.75;;;;;18.10;54.23;101081.75;4956395;28;45300;-60
2022/05/10 02:47:44;;;;;;;;;27.00;27.00;;;;;18.13;53.94;101080.69;4957911;28;45270;-58
2022/05/10 02:50:29;;;;;;;;;32.25;29.50;;;;;18.14;54.38;101080.63;4957781;28;45440;-60
2022/05/10 02:52:55;;;;;;;;;29.75;29.75;;;;;18.17;54.24;101083.06;4957132;28;46512;-60
2022/05/10 02:55:27;;;;;;;;;32.75;28.50;;;;;18.19;54.11;101078.50;4957171;28;45395;-63
2022/05/10 02:57:55;;;;;;;;;27.50;25.75;;;;;18.22;54.29;101086.28;4958055;28;45367;-61
2022/05/10 03:00:23;;;;;;;;;28.25;26.25;;;;;18.23;53.97;101068.50;4958482;28;45488;-61
2022/05/10 03:02:55;;;;;;;;;24.25;24.25;;;;;18.23;54.32;101068.50;4940199;28;46296;-61
2022/05/10 03:05:20;;;;;;;;;31.00;26.75;;;;;18.29;54.35;101069.91;4958826;28;45465;-61
2022/05/10 03:07:46;;;;;;;;;29.75;29.75;;;;;18.28;54.35;101063.72;4959416;28;45397;-59
2022/05/10 03:10:11;;;;;;;;;29.50;28.25;;;;;18.28;54.32;101060.22;4955149;28;45437;-61
2022/05/10 03:12:37;;;;;;;;;32.25;29.25;;;;;18.28;54.35;101063.72;4957262;28;46335;-60
2022/05/10 03:15:04;;;;;;;;;27.50;27.50;;;;;18.27;54.60;101062.03;4956866;28;45241;-59
2022/05/10 03:17:29;;;;;;;;;29.00;27.75;;;;;18.28;54.56;101069.06;4957297;28;45239;-59
2022/05/10 03:19:55;;;;;;;;;34.00;29.00;;;;;18.27;54.70;101054.03;4956906;28;45576;-59
2022/05/10 03:22:20;;;;;;;;;31.00;29.75;;;;;18.21;54.71;101047.31;4956660;28;46170;-61
2022/05/10 03:24:46;;;;;;;;;29.50;28.50;;;;;18.23;54.75;101056.06;4956829;28;45271;-59
2022/05/10 03:27:12;;;;;;;;;31.50;30.25;;;;;18.24;54.64;101055.09;4957373;28;45370;-60
2022/05/10 03:29:39;;;;;;;;;16.25;13.75;;;;;18.24;54.57;101048.91;4958028;28;45587;-60
2022/05/10 03:32:05;;;;;;;;;27.25;27.25;;;;;18.23;54.78;101056.06;4956787;28;47044;-60
2022/05/10 03:37:14;;;;;;;;;25.25;25.00;;;;;18.17;54.98;101047.59;4957567;28;45315;-59
2022/05/10 03:39:39;;;;;;;;;31.50;30.00;;;;;18.16;55.05;101046.75;4958429;28;45323;-61
2022/05/10 03:42:06;;;;;;;;;32.25;27.25;;;;;18.13;54.89;101043.44;4956277;28;45453;-63
2022/05/10 03:44:32;;;;;;;;;29.75;28.75;;;;;18.11;55.18;101040.88;4957101;28;45418;-61
2022/05/10 03:46:57;;;;;;;;;34.50;28.75;;;;;18.08;55.17;101041.06;4958039;28;45331;-60
2022/05/10 03:49:23;;;;;;;;;34.50;31.00;;;;;18.03;55.27;101025.41;4952736;28;45568;-61
2022/05/10 03:51:48;;;;;;;;;32.25;30.00;;;;;18.01;55.09;101031.75;4956017;28;46919;-61
2022/05/10 03:54:13;;;;;;;;;30.25;29.00;;;;;18.00;55.38;101038.00;4956338;28;45330;-61
2022/05/10 03:56:39;;;;;;;;;31.50;30.00;;;;;17.87;55.30;101011.34;4955892;28;45314;-59
2022/05/10 03:59:04;;;;;;;;;33.50;30.00;;;;;17.98;55.42;101029.25;4954950;28;45386;-60
2022/05/10 04:01:30;;;;;;;;;32.75;28.50;;;;;17.95;55.41;101033.00;4956236;28;45989;-62
2022/05/10 04:03:55;;;;;;;;;28.00;26.00;;;;;17.94;55.91;101034.78;4956629;28;45290;-62
2022/05/10 04:06:20;;;;;;;;;32.25;30.00;;;;;17.93;55.58;101038.38;4956929;28;45376;-62
2022/05/10 04:08:46;;;;;;;;;28.75;26.75;;;;;17.91;55.62;101032.31;4958242;28;45536;-62
2022/05/10 04:11:13;;;;;;;;;33.00;30.25;;;;;17.86;55.48;101022.94;4956812;28;45981;-61
2022/05/10 04:13:42;;;;;;;;;33.00;29.50;;;;;17.89;55.51;101034.22;4957492;28;45259;-59
2022/05/10 04:16:07;;;;;;;;;32.25;31.00;;;;;17.90;55.80;101022.63;4956274;28;45436;-61
2022/05/10 04:18:34;;;;;;;;;33.00;30.00;;;;;17.93;55.73;101033.06;4938713;28;45641;-60
2022/05/10 04:21:00;;;;;;;;;28.75;28.75;;;;;17.89;55.70;101020.06;4955667;28;45330;-59
2022/05/10 04:23:25;;;;;;;;;27.50;26.25;;;;;17.97;55.26;101033.75;4955615;28;45237;-61
2022/05/10 04:25:51;;;;;;;;;34.25;28.75;;;;;17.99;55.68;101031.84;4955834;28;45380;-62
2022/05/10 04:28:17;;;;;;;;;32.50;30.50;;;;;18.02;55.38;101033.47;4956705;28;45308;-59
2022/05/10 04:30:43;;;;;;;;;45.50;38.00;;;;;18.03;55.40;101029.88;4957171;28;45409;-59
2022/05/10 04:33:09;;;;;;;;;28.25;26.75;;;;;18.06;55.38;101027.84;4955717;28;45352;-59
2022/05/10 04:35:34;;;;;;;;;32.00;29.00;;;;;18.10;55.18;101033.84;4956094;28;45417;-59
2022/05/10 04:38:01;;;;;;;;;24.50;24.50;;;;;18.14;55.16;101029.16;4956205;28;45271;-60
2022/05/10 04:43:10;;;;;;;;;33.50;31.00;;;;;18.21;54.89;101026.00;4955788;28;45366;-60
2022/05/10 04:45:38;;;;;;;;;30.00;28.50;;;;;18.25;54.84;101030.19;4938870;28;45436;-63
2022/05/10 04:48:04;;;;;;;;;29.25;28.50;;;;;18.30;54.56;101029.88;4956500;28;45566;-61
2022/05/10 04:50:29;;;;;;;;;27.50;27.50;;;;;18.34;54.52;101028.69;4955727;28;46075;-61
2022/05/10 04:52:54;;;;;;;;;29.50;28.75;;;;;18.38;54.51;101024.88;4956566;28;45247;-62
2022/05/10 04:55:20;;;;;;;;;28.75;27.50;;;;;18.42;54.42;101025.53;4938668;28;45304;-62
2022/05/10 04:57:46;;;;;;;;;27.00;26.75;;;;;18.47;54.33;101026.09;4959611;28;45557;-60
2022/05/10 05:00:14;;;;;;;;;28.50;26.75;;;;;18.49;54.05;101024.19;4955647;28;45451;-61
2022/05/10 05:02:40;;;;;;;;;31.50;30.00;;;;;18.54;53.86;101030.06;4939611;28;45463;-61
2022/05/10 05:05:07;;;;;;;;;28.50;28.00;;;;;18.58;53.90;101032.50;4940926;28;45469;-60
2022/05/10 05:07:32;;;;;;;;;27.50;24.75;;;;;18.60;53.68;101028.81;4955638;28;45296;-61
2022/05/10 05:09:57;;;;;;;;;26.75;26.75;;;;;18.58;53.56;101024.53;4954504;28;45355;-59
2022/05/10 05:12:23;;;;;;;;;26.75;25.25;;;;;18.68;53.31;101041.59;4955819;28;45492;-60
2022/05/10 05:14:48;;;;;;;;;27.00;27.00;;;;;18.68;53.53;101039.78;4959388;28;45354;-61
2022/05/10 05:17:14;;;;;;;;;24.75;24.75;;;;;18.71;53.16;101033.38;4955334;28;45285;-60
2022/05/10 05:19:39;;;;;;;;;30.25;27.75;;;;;18.74;53.17;101033.19;4955026;28;45304;-60
2022/05/10 05:22:05;;;;;;;;;28.00;27.75;;;;;18.75;53.46;101037.56;4955031;28;45362;-59
2022/05/10 05:24:30;;;;;;;;;26.50;26.50;;;;;18.75;53.02;101040.22;4955356;28;45261;-60
2022/05/10 05:26:55;;;;;;;;;30.00;29.25;;;;;18.75;52.87;101045.56;4955493;28;45509;-59
2022/05/10 05:29:21;;;;;;;;;30.50;29.00;;;;;18.78;53.02;101047.16;4955905;28;45445;-60
2022/05/10 05:31:48;;;;;;;;;33.50;30.00;;;;;18.76;53.37;101036.59;4955981;28;45425;-59
2022/05/10 05:34:14;;;;;;;;;36.00;32.00;;;;;18.79;53.24;101044.38;4955612;28;45322;-60
2022/05/10 05:36:39;;;;;;;;;30.50;29.50;;;;;18.80;53.29;101043.44;4954859;28;45552;-61
2022/05/10 05:39:04;;;;;;;;;29.75;29.75;;;;;18.81;52.99;101045.13;4954587;28;45451;-60
2022/05/10 05:41:30;;;;;;;;;29.25;27.00;;;;;18.84;53.34;101047.59;4954563;28;45382;-60
2022/05/10 05:43:55;;;;;;;;;30.00;29.75;;;;;18.88;53.18;101045.59;4954523;28;50458;-60
2022/05/10 05:46:21;;;;;;;;;28.25;26.75;;;;;18.90;52.90;101058.78;4955484;28;45368;-60
2022/05/10 05:48:46;;;;;;;;;25.75;23.50;;;;;18.94;52.14;101053.16;4954887;28;46061;-59
2022/05/10 05:51:12;;;;;;;;;33.75;27.50;;;;;18.97;52.62;101050.31;4954733;28;45319;-60
2022/05/10 05:53:37;;;;;;;;;30.00;29.25;;;;;19.02;52.04;101057.97;4955646;28;45531;-62
2022/05/10 05:56:08;;;;;;;;;27.25;26.00;;;;;19.06;52.53;101054.16;4955576;28;45338;-60
2022/05/10 05:58:35;;;;;;;;;28.75;26.50;;;;;19.14;51.96;101053.63;4954522;28;46217;-61
2022/05/10 06:01:02;;;;;;;;;27.75;27.00;;;;;19.18;52.23;101044.47;4955236;28;45366;-61
2022/05/10 06:03:27;;;;;;;;;35.75;29.50;;;;;19.26;52.23;101052.78;4954990;28;45218;-60
2022/05/10 06:05:52;;;;;;;;;32.25;29.00;;;;;19.34;51.57;101054.94;4954781;28;45206;-61
2022/05/10 06:08:19;;;;;;;;;28.75;26.50;;;;;19.38;51.77;101050.22;4955233;28;46447;-61
2022/05/10 06:10:49;;;;;;;;;30.50;28.25;;;;;19.46;51.50;101055.88;4950397;28;45354;-64
2022/05/10 06:13:18;;;;;;;;;31.00;29.00;;;;;19.55;51.32;101054.38;4950070;28;45633;-64
2022/05/10 06:15:44;;;;;;;;;29.00;29.00;;;;;19.64;51.70;101055.53;4934944;28;45466;-63
2022/05/10 06:18:09;;;;;;;;;29.25;28.25;;;;;19.65;50.94;101049.25;4952752;28;46370;-61
2022/05/10 06:20:35;;;;;;;;;29.75;28.50;;;;;19.83;50.69;101050.59;4955340;28;45439;-60
2022/05/10 06:23:01;;;;;;;;;30.50;29.25;;;;;19.96;50.64;101052.41;4955241;28;45523;-64
2022/05/10 06:25:28;;;;;;;;;36.00;32.25;;;;;20.10;50.58;101054.91;4957614;28;45677;-62
2022/05/10 06:27:55;;;;;;;;;31.25;28.50;;;;;20.27;50.31;101051.03;4957648;28;45920;-61
2022/05/10 06:30:21;;;;;;;;;31.25;28.75;;;;;20.44;49.56;101051.59;4957261;28;45326;-61
2022/05/10 06:32:47;;;;;;;;;29.50;26.75;;;;;20.52;49.86;101040.31;4957304;28;45378;-64
2022/05/10 06:35:13;;;;;;;;;29.50;29.25;;;;;20.69;49.39;101047.06;4957785;28;45627;-68
2022/05/10 06:40:22;;;;;;;;;28.75;28.00;;;;;21.04;48.95;101043.53;4957745;28;45341;-66
2022/05/10 06:42:48;;;;;;;;;27.00;26.00;;;;;21.21;48.53;101042.22;4956670;28;45172;-64
2022/05/10 06:45:16;;;;;;;;;39.50;34.50;;;;;21.37;47.98;101035.66;4957274;28;45446;-66
2022/05/10 06:47:43;;;;;;;;;32.25;31.00;;;;;21.53;47.82;101043.34;4957280;28;45361;-72
2022/05/10 06:50:12;;;;;;;;;30.00;29.00;;;;;21.67;47.52;101044.94;4956729;28;45413;-65
2022/05/10 06:52:38;;;;;;;;;27.25;26.75;;;;;21.76;47.05;101038.88;4951153;28;45544;-66
2022/05/10 06:55:05;;;;;;;;;29.00;26.50;;;;;21.86;46.92;101036.28;4955015;28;45608;-65
2022/05/10 06:57:30;;;;;;;;;29.50;29.00;;;;;21.93;47.17;101039.31;4956070;28;46589;-65
2022/05/10 06:59:55;;;;;;;;;31.75;28.25;;;;;22.02;46.71;101039.41;4956334;28;45846;-67
2022/05/10 07:02:24;;;;;;;;;36.25;31.00;;;;;22.06;46.63;101036.47;4958076;28;45321;-64
2022/05/10 07:04:49;;;;;;;;;34.50;30.25;;;;;22.18;46.45;101044.38;4955398;28;45452;-65
2022/05/10 07:07:15;;;;;;;;;33.75;29.75;;;;;22.26;45.96;101041.03;4955105;28;45388;-70
2022/05/10 07:09:40;;;;;;;;;26.50;22.75;;;;;22.43;46.16;101045.00;4938031;28;45515;-69
2022/05/10 07:12:06;;;;;;;;;24.75;23.50;;;;;22.54;45.77;101043.28;4937857;28;45414;-70
2022/05/10 07:14:31;;;;;;;;;22.00;22.00;;;;;22.58;45.66;101028.66;4957183;28;45709;-84
2022/05/10 07:16:56;;;;;;;;;26.75;25.50;;;;;22.68;44.85;101037.59;4961445;28;46009;-75
2022/05/10 07:19:22;;;;;;;;;28.25;26.25;;;;;22.74;45.17;101033.56;4966303;28;45317;-82
2022/05/10 07:21:50;;;;;;;;;24.75;24.75;;;;;22.81;44.46;101039.28;4958220;28;45155;-71
2022/05/10 07:24:19;;;;;;;;;27.75;25.50;;;;;22.89;44.93;101036.78;4954434;28;45481;-72
2022/05/10 07:26:48;;;;;;;;;24.00;23.00;;;;;22.96;44.38;101040.66;4955657;28;45464;-72
2022/05/10 07:29:15;;;;;;;;;25.75;23.25;;;;;23.01;43.77;101030.38;4956766;28;45353;-72
2022/05/10 07:31:40;;;;;;;;;28.25;26.50;;;;;23.12;43.70;101033.94;4956145;28;45378;-73
2022/05/10 07:34:06;;;;;;;;;28.75;24.75;;;;;23.11;43.50;101025.03;4954057;28;45464;-75
2022/05/10 07:36:35;;;;;;;;;23.25;21.50;;;;;23.20;43.18;101029.59;4956698;28;46192;-71
2022/05/10 07:39:05;;;;;;;;;28.75;26.50;;;;;23.34;43.17;101035.66;4957493;28;45511;-74
2022/05/10 07:41:31;;;;;;;;;33.00;27.00;;;;;23.44;43.54;101036.53;4957263;28;45310;-73
2022/05/10 07:43:56;;;;;;;;;21.75;21.00;;;;;23.55;42.77;101035.59;4955135;28;45648;-72
2022/05/10 07:46:22;;;;;;;;;23.50;23.50;;;;;23.58;42.75;101037.16;4956097;28;45254;-73
2022/05/10 07:48:47;;;;;;;;;23.50;22.50;;;;;23.62;42.74;101036.75;4957095;28;45401;-74
2022/05/10 07:51:13;;;;;;;;;25.00;24.00;;;;;23.63;42.56;101034.91;4958095;28;45431;-73
2022/05/10 07:53:41;;;;;;;;;28.50;24.50;;;;;23.62;42.48;101030.53;4958011;28;45429;-74
2022/05/10 07:56:06;;;;;;;;;25.00;23.50;;;;;23.61;42.75;101026.16;4957367;28;46171;-73
2022/05/10 07:58:33;;;;;;;;;23.75;23.75;;;;;23.60;42.54;101035.19;4957888;28;45370;-74
2022/05/10 08:00:59;;;;;;;;;25.25;23.00;;;;;23.60;42.59;101021.75;4957636;28;45338;-74
2022/05/10 08:03:26;;;;;;;;;24.25;20.75;;;;;23.67;41.90;101022.06;4939653;28;45377;-75
2022/05/10 08:05:55;;;;;;;;;22.25;19.75;;;;;23.83;42.14;101029.59;4956103;28;45505;-74
2022/05/10 08:08:20;;;;;;;;;23.00;21.00;;;;;23.99;41.30;101024.53;4956204;28;45401;-75
2022/05/10 08:10:48;;;;;;;;;18.25;17.75;;;;;24.21;41.10;101031.53;4938902;28;45482;-74
2022/05/10 08:13:17;;;;;;;;;20.25;20.25;;;;;24.36;41.11;101021.19;4957192;28;45517;-72
2022/05/10 08:15:42;;;;;;;;;24.75;20.25;;;;;24.56;40.82;101033.78;4956530;28;45500;-72
2022/05/10 08:18:08;;;;;;;;;13.75;13.75;;;;;24.65;40.76;101020.34;4956493;28;45405;-71
2022/05/10 08:20:34;;;;;;;;;21.50;21.50;;;;;24.68;40.57;101029.13;4957443;28;45363;-72
2022/05/10 08:23:00;;;;;;;;;21.00;21.00;;;;;24.71;40.67;101035.06;4956677;28;45632;-74
2022/05/10 08:25:26;;;;;;;;;17.00;17.00;;;;;24.72;40.13;101030.53;4956000;28;45468;-73
2022/05/10 08:27:51;;;;;;;;;17.75;17.25;;;;;24.84;40.08;101037.47;4955531;28;45320;-72
2022/05/10 08:30:17;;;;;;;;;16.25;16.25;;;;;24.95;39.43;101041.88;4955797;28;45331;-73
2022/05/10 08:32:42;;;;;;;;;19.25;19.25;;;;;24.92;39.43;101034.91;4956349;28;45378;-74
2022/05/10 08:35:09;;;;;;;;;19.50;18.75;;;;;24.92;39.30;101044.84;4956931;28;46208;-72
2022/05/10 08:37:37;;;;;;;;;19.75;14.50;;;;;24.92;39.36;101036.78;4937836;28;45310;-72
2022/05/10 08:40:06;;;;;;;;;19.25;19.25;;;;;25.01;39.38;101038.59;4954913;28;45351;-72
2022/05/10 08:42:34;;;;;;;;;20.25;17.25;;;;;25.08;38.98;101037.00;4955855;28;45568;-71
2022/05/10 08:45:09;;;;;;;;;14.00;13.75;;;;;25.15;39.31;101033.75;4954882;28;46267;-72
2022/05/10 08:47:36;;;;;;;;;18.50;16.50;;;;;25.23;38.96;101031.16;4955573;28;45365;-74
2022/05/10 08:50:09;;;;;;;;;19.75;19.75;;;;;25.27;38.79;101029.00;4956272;28;45246;-73
2022/05/10 08:52:39;;;;;;;;;21.75;21.00;;;;;25.36;38.89;101020.91;4956686;28;45273;-73
2022/05/10 08:55:08;;;;;;;;;19.25;18.00;;;;;25.52;38.53;101022.13;4938412;28;47262;-72
2022/05/10 08:58:06;;;;;;;;;20.75;19.25;;;;;25.61;38.17;101018.53;4955883;28;45295;-73
2022/05/10 09:00:40;;;;;;;;;20.25;19.25;;;;;25.71;38.47;101028.41;4930757;28;45475;-74
2022/05/10 09:03:42;;;;;;;;;13.50;11.50;;;;;25.80;37.97;101016.72;4956213;28;45402;-71
2022/05/10 09:06:22;;;;;;;;;16.75;15.50;;;;;25.99;37.90;101017.63;4954516;28;45331;-72
2022/05/10 09:09:02;;;;;;;;;14.50;13.25;;;;;26.14;37.73;101020.63;4955480;28;45359;-72
2022/05/10 09:11:46;;;;;;;;;19.00;17.00;;;;;26.33;37.23;101027.75;4954473;28;45238;-71
2022/05/10 09:14:13;;;;;;;;;17.75;16.00;;;;;26.34;36.52;101024.88;4954260;28;45441;-72
2022/05/10 09:16:40;;;;;;;;;16.75;15.75;;;;;26.50;36.95;101023.34;4955361;28;45440;-70
2022/05/10 09:19:09;;;;;;;;;15.00;14.00;;;;;26.71;36.01;101014.06;4955488;28;45357;-72
2022/05/10 09:21:47;;;;;;;;;16.50;15.50;;;;;27.01;35.82;101015.47;4955999;28;45387;-72
2022/05/10 09:24:22;;;;;;;;;12.75;12.75;;;;;27.30;35.64;101013.44;4956217;28;45303;-70
2022/05/10 09:26:52;;;;;;;;;16.25;15.25;;;;;27.60;35.07;101009.38;4955470;28;45242;-73
2022/05/10 09:29:37;;;;;;;;;13.00;13.00;;;;;27.92;33.97;101015.03;4955095;28;45525;-72
2022/05/10 09:35:19;;;;;;;;;13.00;11.50;;;;;27.91;32.43;101007.94;4955580;28;45410;-71
2022/05/10 09:37:48;;;;;;;;;14.50;14.50;;;;;27.85;33.46;101006.75;4955773;28;45765;-71
2022/05/10 09:40:35;;;;;;;;;11.50;11.50;;;;;27.81;33.11;101003.53;4955245;28;45492;-71
2022/05/10 09:43:15;;;;;;;;;11.00;11.00;;;;;27.84;32.42;101008.63;4954246;28;45418;-71
2022/05/10 09:45:42;;;;;;;;;15.00;13.00;;;;;27.82;32.69;100999.81;4954482;28;45422;-71
2022/05/10 09:48:07;;;;;;;;;16.50;15.00;;;;;27.80;32.97;101011.78;4954211;28;46728;-71
2022/05/10 09:50:42;;;;;;;;;14.00;14.00;;;;;27.69;32.58;100989.47;4954457;28;46141;-72
2022/05/10 09:53:15;;;;;;;;;19.25;15.25;;;;;27.71;32.85;101000.13;4954573;28;45287;-72
2022/05/10 09:55:53;;;;;;;;;12.50;12.50;;;;;27.64;33.49;101001.81;4957633;28;45278;-71
2022/05/10 09:58:26;;;;;;;;;22.00;19.00;;;;;27.53;32.79;100984.03;4958904;28;45660;-72
2022/05/10 10:00:52;;;;;;;;;15.75;15.75;;;;;27.51;33.54;100991.44;4958351;28;46008;-72
2022/05/10 10:03:26;;;;;;;;;12.50;12.50;;;;;27.49;32.95;100988.03;4958836;28;45338;-72
2022/05/10 10:06:12;;;;;;;;;18.25;14.50;;;;;27.45;33.06;100981.28;4958870;28;45541;-73
2022/05/10 10:08:41;;;;;;;;;13.25;12.25;;;;;27.52;32.85;100985.88;4957711;28;45726;-70
2022/05/10 10:11:32;;;;;;;;;13.75;13.75;;;;;27.60;32.98;100971.56;4958009;28;45368;-71
2022/05/10 10:14:03;;;;;;;;;15.50;15.50;;;;;27.74;33.17;100980.88;4958368;28;45263;-73
2022/05/10 10:16:53;;;;;;;;;12.75;12.75;;;;;27.83;32.17;100973.63;4940614;28;45449;-73
2022/05/10 10:19:22;;;;;;;;;13.75;13.00;;;;;27.74;31.86;100989.00;4958531;28;45638;-73
2022/05/10 10:22:14;;;;;;;;;13.75;13.75;;;;;27.55;32.38;100987.41;4957241;28;45373;-72
2022/05/10 10:24:52;;;;;;;;;14.25;14.25;;;;;27.26;32.51;100977.81;4958314;28;45383;-72
2022/05/10 10:27:41;;;;;;;;;13.00;12.75;;;;;27.14;32.90;100988.03;4958419;28;45358;-73
2022/05/10 10:30:20;;;;;;;;;16.75;15.75;;;;;27.13;33.61;100983.66;4957698;28;46098;-73
2022/05/10 10:32:52;;;;;;;;;16.75;14.00;;;;;27.15;33.16;100984.34;4958118;28;45499;-73
2022/05/10 10:35:47;;;;;;;;;17.00;16.00;;;;;27.11;32.84;100982.97;4957866;28;45243;-73
2022/05/10 10:38:24;;;;;;;;;10.50;10.50;;;;;27.10;32.58;100994.78;4932714;28;45375;-73
2022/05/10 10:41:12;;;;;;;;;14.00;14.00;;;;;27.09;32.59;100976.88;4957450;28;46495;-73
2022/05/10 10:43:49;;;;;;;;;13.50;12.75;;;;;27.10;32.28;100987.53;4940222;28;45399;-75
2022/05/10 10:46:29;;;;;;;;;14.00;14.00;;;;;27.07;32.59;100979.75;4958075;28;45471;-73
2022/05/10 10:48:59;;;;;;;;;16.50;15.75;;;;;27.11;33.24;100982.97;4956879;28;45337;-72
2022/05/10 10:51:31;;;;;;;;;12.50;12.00;;;;;27.16;32.62;100991.44;4957968;28;46286;-73
2022/05/10 10:53:59;;;;;;;;;16.50;15.75;;;;;27.05;32.23;100978.22;4958957;28;45176;-71
2022/05/10 10:56:24;;;;;;;;;14.00;14.00;;;;;27.04;33.07;100980.09;4957820;28;45441;-71
2022/05/10 10:59:15;;;;;;;;;15.00;14.00;;;;;26.95;32.53;100976.47;4956421;28;45735;-71
2022/05/10 11:01:59;;;;;;;;;16.75;14.25;;;;;27.07;33.24;100981.59;4957088;28;45375;-72
2022/05/10 11:05:02;;;;;;;;;16.00;16.00;;;;;27.23;32.81;100978.16;4955847;28;45414;-73
2022/05/10 11:07:48;;;;;;;;;13.00;13.00;;;;;27.41;32.41;100981.59;4956668;28;45369;-71
2022/05/10 11:10:37;;;;;;;;;11.00;9.75;;;;;27.62;32.00;100976.81;4958008;28;45245;-72
2022/05/10 11:13:36;;;;;;;;;12.00;12.00;;;;;27.79;31.54;100967.72;4958204;28;46744;-72
2022/05/10 11:16:14;;;;;;;;;14.25;13.25;;;;;27.91;31.83;100953.88;4957249;28;45486;-73
2022/05/10 11:19:10;;;;;;;;;13.25;13.25;;;;;28.00;31.53;100952.88;4957529;28;45293;-71
2022/05/10 11:22:16;;;;;;;;;12.00;12.00;;;;;28.18;31.21;100941.09;4957724;28;45516;-72
2022/05/10 11:25:06;;;;;;;;;14.50;13.00;;;;;28.42;31.32;100940.22;4939210;28;47242;-71
2022/05/10 11:27:44;;;;;;;;;10.25;10.25;;;;;28.63;30.73;100926.16;4955502;28;45557;-73
2022/05/10 11:30:15;;;;;;;;;13.00;13.00;;;;;28.81;31.03;100935.97;4957256;28;45217;-72
2022/05/10 11:33:04;;;;;;;;;11.75;11.75;;;;;28.91;30.73;100917.66;4957072;28;45387;-72
2022/05/10 11:35:55;;;;;;;;;14.25;11.75;;;;;29.06;30.20;100930.47;4957025;28;46402;-72
2022/05/10 11:38:42;;;;;;;;;14.00;12.25;;;;;29.26;29.98;100936.31;4955307;28;45499;-71
2022/05/10 11:41:15;;;;;;;;;10.00;10.00;;;;;29.45;29.79;100940.47;4957288;28;45337;-71
2022/05/10 11:43:50;;;;;;;;;12.50;12.50;;;;;29.43;30.19;100931.66;4956871;28;45472;-74